createdAt,value
2023-04-02T00:00:10.768Z,8.93
2023-04-02T00:02:56.279Z,8.86
2023-04-02T00:05:28.967Z,8.71
2023-04-02T00:08:16.806Z,9.12
2023-04-02T00:10:49.390Z,8.97
2023-04-02T00:13:15.825Z,8.80
2023-04-02T00:15:55.667Z,9.11
2023-04-02T00:18:22.533Z,8.88
2023-04-02T00:20:54.921Z,8.82
2023-04-02T00:23:22.752Z,8.82
2023-04-02T00:25:49.131Z,8.62
2023-04-02T00:28:21.249Z,8.70
2023-04-02T00:30:53.862Z,8.77
2023-04-02T00:33:23.055Z,8.63
2023-04-02T00:35:52.496Z,8.95
2023-04-02T00:38:28.306Z,8.87
2023-04-02T00:40:57.164Z,8.83
2023-04-02T00:43:26.111Z,8.37
2023-04-02T00:45:57.395Z,8.29
2023-04-02T00:48:31.639Z,8.47
2023-04-02T00:51:23.713Z,8.58
2023-04-02T00:53:54.101Z,8.14
2023-04-02T00:56:36.322Z,8.25
2023-04-02T00:59:03.078Z,8.50
2023-04-02T01:01:35.849Z,8.47
2023-04-02T01:04:04.436Z,8.06
2023-04-02T01:06:35.755Z,7.77
2023-04-02T01:09:24.837Z,8.01
2023-04-02T01:12:19.169Z,8.04
2023-04-02T01:15:12.305Z,7.77
2023-04-02T01:17:50.747Z,7.90
2023-04-02T01:20:54.191Z,7.99
2023-04-02T01:23:26.400Z,8.25
2023-04-02T01:26:11.388Z,7.78
2023-04-02T01:28:56.285Z,8.04
2023-04-02T01:31:23.818Z,7.89
2023-04-02T01:33:50.132Z,7.81
2023-04-02T01:36:27.998Z,8.11
2023-04-02T01:39:10.903Z,7.83
2023-04-02T01:41:49.195Z,7.65
2023-04-02T01:44:23.983Z,7.59
2023-04-02T01:46:50.580Z,7.50
2023-04-02T01:49:22.216Z,7.52
2023-04-02T01:51:54.765Z,7.32
2023-04-02T01:54:22.443Z,7.52
2023-04-02T01:56:51.620Z,7.75
2023-04-02T01:59:21.095Z,7.74
2023-04-02T02:02:00.617Z,7.88
2023-04-02T02:04:27.099Z,7.47
2023-04-02T02:06:53.529Z,7.33
2023-04-02T02:09:24.218Z,7.33
2023-04-02T02:11:51.213Z,7.22
2023-04-02T02:14:26.908Z,7.36
2023-04-02T02:16:59.781Z,7.14
2023-04-02T02:19:32.006Z,7.37
2023-04-02T02:22:11.156Z,7.65
2023-04-02T02:24:38.548Z,7.36
2023-04-02T02:27:22.941Z,7.32
2023-04-02T02:29:58.632Z,7.30
2023-04-02T02:32:30.566Z,6.98
2023-04-02T02:35:43.308Z,7.32
2023-04-02T02:38:29.370Z,7.37
2023-04-02T02:41:01.257Z,7.13
2023-04-02T02:43:28.285Z,7.35
2023-04-02T02:45:57.507Z,7.27
2023-04-02T02:48:34.132Z,7.11
2023-04-02T02:51:04.255Z,7.17
2023-04-02T02:53:30.674Z,7.01
2023-04-02T02:56:01.007Z,7.11
2023-04-02T02:58:31.791Z,7.09
2023-04-02T03:00:59.356Z,6.95
2023-04-02T03:03:32.388Z,6.64
2023-04-02T03:06:05.724Z,6.90
2023-04-02T03:08:41.692Z,6.96
2023-04-02T03:11:26.729Z,6.89
2023-04-02T03:13:58.356Z,6.59
2023-04-02T03:16:34.387Z,6.56
2023-04-02T03:19:15.724Z,7.01
2023-04-02T03:21:51.126Z,7.05
2023-04-02T03:24:23.587Z,6.87
2023-04-02T03:26:56.489Z,6.69
2023-04-02T03:29:26.807Z,6.75
2023-04-02T03:32:39.498Z,6.78
2023-04-02T03:35:30.594Z,6.49
2023-04-02T03:38:19.501Z,6.66
2023-04-02T03:41:10.198Z,6.61
2023-04-02T03:43:42.641Z,6.61
2023-04-02T03:46:22.400Z,6.61
2023-04-02T03:48:54.800Z,6.40
2023-04-02T03:51:30.439Z,6.39
2023-04-02T03:53:56.970Z,6.34
2023-04-02T03:56:31.141Z,6.80
2023-04-02T03:59:06.029Z,6.78
2023-04-02T04:01:37.862Z,6.58
2023-04-02T04:04:12.546Z,6.42
2023-04-02T04:06:43.166Z,6.82
2023-04-02T04:09:39.021Z,6.61
2023-04-02T04:12:09.504Z,6.51
2023-04-02T04:14:41.903Z,6.34
2023-04-02T04:17:09.056Z,6.28
2023-04-02T04:19:57.770Z,6.26
2023-04-02T04:22:26.617Z,6.31
2023-04-02T04:24:52.928Z,6.50
2023-04-02T04:27:36.905Z,6.25
2023-04-02T04:30:13.554Z,5.93
2023-04-02T04:32:48.081Z,6.30
2023-04-02T04:35:37.170Z,6.43
2023-04-02T04:38:10.608Z,5.99
2023-04-02T04:40:44.149Z,6.02
2023-04-02T04:43:19.151Z,6.39
2023-04-02T04:45:56.062Z,6.18
2023-04-02T04:48:39.178Z,6.17
2023-04-02T04:51:10.173Z,6.08
2023-04-02T04:53:46.996Z,5.95
2023-04-02T04:56:19.518Z,6.17
2023-04-02T04:58:53.937Z,6.13
2023-04-02T05:01:29.915Z,6.20
2023-04-02T05:04:21.808Z,6.02
2023-04-02T05:07:07.280Z,5.73
2023-04-02T05:09:59.268Z,5.70
2023-04-02T05:12:28.549Z,5.84
2023-04-02T05:15:01.233Z,6.06
2023-04-02T05:17:43.004Z,5.88
2023-04-02T05:20:20.245Z,5.95
2023-04-02T05:23:29.527Z,5.77
2023-04-02T05:26:06.809Z,5.66
2023-04-02T05:28:40.795Z,5.89
2023-04-02T05:31:12.510Z,5.86
2023-04-02T05:33:39.832Z,5.58
2023-04-02T05:36:19.972Z,5.59
2023-04-02T05:38:48.458Z,5.25
2023-04-02T05:41:26.505Z,5.81
2023-04-02T05:44:05.457Z,5.68
2023-04-02T05:46:36.470Z,5.36
2023-04-02T05:49:06.921Z,5.24
2023-04-02T05:51:45.701Z,5.24
2023-04-02T05:54:25.621Z,5.26
2023-04-02T05:56:57.832Z,5.37
2023-04-02T05:59:31.655Z,5.85
2023-04-02T06:02:14.161Z,5.78
2023-04-02T06:04:59.026Z,5.56
2023-04-02T06:07:41.224Z,5.58
2023-04-02T06:10:33.697Z,5.49
2023-04-02T06:13:15.293Z,5.48
2023-04-02T06:15:41.850Z,5.44
2023-04-02T06:18:19.050Z,5.55
2023-04-02T06:20:46.163Z,5.97
2023-04-02T06:23:19.702Z,5.76
2023-04-02T06:25:55.342Z,5.60
2023-04-02T06:28:29.233Z,5.30
2023-04-02T06:31:00.967Z,5.29
2023-04-02T06:33:27.311Z,5.42
2023-04-02T06:35:55.356Z,5.17
2023-04-02T06:38:29.448Z,5.53
2023-04-02T06:41:04.483Z,5.71
2023-04-02T06:43:36.636Z,6.07
2023-04-02T06:46:11.866Z,5.91
2023-04-02T06:48:41.731Z,5.68
2023-04-02T06:51:12.460Z,5.65
2023-04-02T06:53:42.947Z,5.57
2023-04-02T06:56:27.290Z,5.95
2023-04-02T06:58:53.928Z,5.75
2023-04-02T07:01:25.321Z,5.69
2023-04-02T07:03:51.919Z,5.59
2023-04-02T07:06:21.275Z,5.81
2023-04-02T07:08:48.421Z,5.59
2023-04-02T07:11:19.434Z,5.65
2023-04-02T07:13:50.203Z,5.65
2023-04-02T07:16:20.517Z,5.67
2023-04-02T07:18:47.392Z,5.39
2023-04-02T07:21:14.035Z,5.51
2023-04-02T07:23:41.006Z,5.48
2023-04-02T07:26:12.786Z,5.36
2023-04-02T07:28:39.123Z,5.14
2023-04-02T07:31:15.981Z,5.43
2023-04-02T07:33:42.309Z,5.51
2023-04-02T07:36:13.511Z,5.69
2023-04-02T07:38:39.978Z,5.38
2023-04-02T07:41:07.335Z,5.22
2023-04-02T07:43:33.716Z,5.17
2023-04-02T07:46:00.018Z,5.84
2023-04-02T07:48:26.538Z,5.46
2023-04-02T07:50:53.083Z,5.84
2023-04-02T07:53:45.737Z,5.51
2023-04-02T07:56:14.876Z,5.58
2023-04-02T07:58:41.190Z,5.38
2023-04-02T08:01:15.700Z,5.59
2023-04-02T08:03:42.144Z,5.56
2023-04-02T08:06:08.608Z,5.64
2023-04-02T08:08:34.951Z,5.29
2023-04-02T08:11:01.257Z,5.28
2023-04-02T08:13:27.630Z,5.45
2023-04-02T08:15:54.001Z,5.02
2023-04-02T08:18:22.663Z,5.13
2023-04-02T08:20:49.371Z,4.88
2023-04-02T08:23:16.627Z,5.59
2023-04-02T08:25:44.154Z,5.14
2023-04-02T08:28:10.456Z,4.83
2023-04-02T08:30:36.788Z,5.06
2023-04-02T08:33:03.859Z,5.22
2023-04-02T08:35:30.887Z,5.36
2023-04-02T08:37:57.469Z,4.98
2023-04-02T08:40:36.024Z,4.92
2023-04-02T08:43:26.752Z,5.10
2023-04-02T08:46:10.248Z,5.23
2023-04-02T08:48:42.454Z,5.38
2023-04-02T08:51:21.801Z,5.51
2023-04-02T08:53:48.275Z,5.27
2023-04-02T08:56:20.442Z,5.30
2023-04-02T08:58:50.938Z,4.83
2023-04-02T09:01:36.454Z,4.67
2023-04-02T09:04:06.821Z,4.98
2023-04-02T09:06:33.985Z,4.89
2023-04-02T09:09:01.035Z,5.04
2023-04-02T09:11:52.074Z,5.06
2023-04-02T09:14:42.608Z,5.12
2023-04-02T09:17:19.128Z,5.04
2023-04-02T09:19:54.894Z,5.31
2023-04-02T09:22:27.250Z,4.98
2023-04-02T09:24:59.611Z,4.91
2023-04-02T09:27:30.012Z,4.97
2023-04-02T09:30:14.613Z,5.35
2023-04-02T09:32:54.443Z,5.15
2023-04-02T09:35:27.062Z,4.87
2023-04-02T09:38:08.935Z,4.87
2023-04-02T09:40:46.551Z,4.87
2023-04-02T09:43:16.261Z,4.86
2023-04-02T09:45:44.911Z,4.79
2023-04-02T09:48:26.893Z,5.45
2023-04-02T09:51:06.874Z,5.31
2023-04-02T09:53:36.699Z,5.05
2023-04-02T09:56:23.949Z,5.23
2023-04-02T09:59:15.261Z,4.78
2023-04-02T10:01:44.366Z,5.23
2023-04-02T10:04:41.682Z,5.05
2023-04-02T10:07:32.714Z,5.28
2023-04-02T10:10:18.121Z,5.29
2023-04-02T10:12:48.567Z,5.44
2023-04-02T10:15:20.754Z,5.05
2023-04-02T10:17:55.150Z,5.15
2023-04-02T10:20:25.632Z,5.26
2023-04-02T10:22:52.007Z,5.20
2023-04-02T10:25:24.678Z,5.16
2023-04-02T10:28:08.852Z,5.21
2023-04-02T10:30:53.472Z,5.47
2023-04-02T10:33:37.258Z,5.77
2023-04-02T10:36:32.971Z,5.46
2023-04-02T10:39:15.921Z,5.47
2023-04-02T10:41:52.184Z,5.41
2023-04-02T10:44:47.523Z,5.74
2023-04-02T10:47:32.604Z,5.26
2023-04-02T10:50:27.994Z,5.77
2023-04-02T10:53:14.558Z,5.86
2023-04-02T10:55:45.421Z,5.83
2023-04-02T10:58:29.956Z,5.56
2023-04-02T11:01:15.455Z,5.53
2023-04-02T11:03:48.368Z,5.66
2023-04-02T11:06:25.847Z,5.60
2023-04-02T11:08:58.325Z,5.29
2023-04-02T11:11:30.535Z,5.21
2023-04-02T11:14:03.075Z,5.27
2023-04-02T11:16:29.773Z,5.23
2023-04-02T11:19:21.670Z,5.19
2023-04-02T11:21:58.515Z,5.11
2023-04-02T11:24:29.116Z,5.81
2023-04-02T11:27:04.783Z,5.45
2023-04-02T11:29:33.405Z,5.50
2023-04-02T11:32:21.864Z,5.37
2023-04-02T11:34:56.431Z,5.28
2023-04-02T11:37:40.796Z,5.70
2023-04-02T11:40:44.975Z,5.80
2023-04-02T11:43:32.976Z,5.79
2023-04-02T11:46:03.565Z,5.62
2023-04-02T11:48:34.581Z,5.84
2023-04-02T11:51:00.991Z,5.86
2023-04-02T11:53:33.157Z,5.75
2023-04-02T11:56:08.519Z,6.16
2023-04-02T11:59:07.802Z,6.23
2023-04-02T12:02:04.512Z,6.29
2023-04-02T12:04:45.892Z,6.23
2023-04-02T12:07:30.081Z,5.95
2023-04-02T12:10:00.701Z,5.88
2023-04-02T12:12:32.797Z,6.05
2023-04-02T12:15:00.576Z,5.94
2023-04-02T12:17:38.714Z,5.85
2023-04-02T12:20:07.851Z,6.44
2023-04-02T12:22:38.026Z,6.48
2023-04-02T12:25:18.311Z,6.11
2023-04-02T12:27:44.715Z,6.19
2023-04-02T12:30:19.253Z,6.19
2023-04-02T12:32:45.884Z,6.43
2023-04-02T12:35:27.964Z,6.13
2023-04-02T12:37:54.457Z,6.16
2023-04-02T12:40:21.300Z,5.91
2023-04-02T12:42:47.656Z,5.89
2023-04-02T12:45:22.892Z,5.91
2023-04-02T12:47:49.248Z,6.15
2023-04-02T12:50:17.075Z,6.30
2023-04-02T12:52:49.282Z,6.20
2023-04-02T12:55:20.075Z,6.48
2023-04-02T12:57:46.446Z,6.24
2023-04-02T13:00:22.061Z,6.41
2023-04-02T13:03:12.805Z,6.09
2023-04-02T13:05:48.101Z,6.42
2023-04-02T13:08:41.544Z,6.64
2023-04-02T13:11:08.296Z,6.41
2023-04-02T13:13:37.822Z,6.78
2023-04-02T13:16:24.872Z,6.66
2023-04-02T13:18:51.353Z,6.71
2023-04-02T13:21:20.691Z,6.67
2023-04-02T13:23:47.478Z,6.59
2023-04-02T13:26:21.157Z,6.81
2023-04-02T13:28:56.634Z,6.82
2023-04-02T13:31:23.011Z,6.94
2023-04-02T13:33:49.434Z,7.13
2023-04-02T13:36:15.808Z,6.59
2023-04-02T13:38:42.420Z,6.51
2023-04-02T13:41:25.210Z,6.21
2023-04-02T13:43:53.058Z,6.33
2023-04-02T13:46:25.250Z,6.42
2023-04-02T13:48:53.340Z,6.64
2023-04-02T13:51:22.741Z,6.63
2023-04-02T13:53:55.652Z,6.36
2023-04-02T13:56:22.102Z,6.96
2023-04-02T13:58:48.607Z,6.63
2023-04-02T14:01:15.089Z,6.65
2023-04-02T14:03:41.932Z,6.80
2023-04-02T14:06:29.748Z,6.95
2023-04-02T14:09:21.990Z,6.88
2023-04-02T14:12:10.757Z,6.69
2023-04-02T14:15:13.552Z,6.51
2023-04-02T14:18:04.562Z,6.45
2023-04-02T14:20:44.554Z,7.17
2023-04-02T14:23:29.508Z,6.83
2023-04-02T14:26:25.610Z,6.51
2023-04-02T14:28:54.691Z,6.65
2023-04-02T14:31:36.167Z,6.29
2023-04-02T14:34:11.281Z,6.33
2023-04-02T14:37:04.529Z,6.52
2023-04-02T14:39:59.735Z,6.85
2023-04-02T14:42:41.813Z,6.62
2023-04-02T14:45:12.555Z,6.58
2023-04-02T14:47:45.221Z,6.45
2023-04-02T14:50:17.006Z,6.43
2023-04-02T14:52:47.378Z,6.70
2023-04-02T14:55:26.087Z,6.41
2023-04-02T14:57:54.749Z,6.22
2023-04-02T15:01:02.764Z,6.81
2023-04-02T15:03:34.787Z,7.10
2023-04-02T15:06:12.180Z,6.91
2023-04-02T15:08:48.283Z,6.55
2023-04-02T15:11:29.820Z,6.30
2023-04-02T15:14:31.535Z,6.78
2023-04-02T15:16:57.971Z,6.84
2023-04-02T15:19:24.496Z,6.68
2023-04-02T15:22:09.480Z,6.59
2023-04-02T15:25:04.344Z,6.40
2023-04-02T15:28:07.629Z,6.46
2023-04-02T15:30:43.496Z,6.59
2023-04-02T15:33:28.069Z,6.59
2023-04-02T15:36:13.096Z,6.60
2023-04-02T15:38:57.731Z,6.90
2023-04-02T15:41:33.163Z,6.76
2023-04-02T15:44:09.920Z,7.20
2023-04-02T15:46:54.323Z,6.86
2023-04-02T15:49:39.547Z,6.66
2023-04-02T15:52:31.704Z,6.74
2023-04-02T15:55:32.632Z,6.87
2023-04-02T15:58:21.753Z,7.13
2023-04-02T16:01:03.931Z,6.90
2023-04-02T16:03:49.273Z,6.66
2023-04-02T16:06:31.150Z,6.86
2023-04-02T16:09:22.365Z,6.72
2023-04-02T16:12:21.258Z,6.60
2023-04-02T16:14:49.482Z,6.54
2023-04-02T16:17:25.581Z,6.69
2023-04-02T16:20:00.603Z,6.87
2023-04-02T16:22:30.010Z,6.72
2023-04-02T16:25:10.953Z,6.94
2023-04-02T16:27:45.047Z,7.04
2023-04-02T16:30:28.801Z,6.85
2023-04-02T16:33:27.256Z,6.91
2023-04-02T16:35:58.152Z,7.17
2023-04-02T16:38:49.043Z,7.12
2023-04-02T16:41:25.474Z,7.19
2023-04-02T16:44:10.330Z,7.24
2023-04-02T16:46:51.685Z,7.18
2023-04-02T16:49:32.926Z,7.02
2023-04-02T16:52:33.703Z,7.21
2023-04-02T16:55:12.119Z,7.12
2023-04-02T16:57:56.337Z,6.95
2023-04-02T17:00:45.267Z,7.01
2023-04-02T17:03:26.695Z,6.82
2023-04-02T17:06:04.531Z,6.89
2023-04-02T17:08:38.935Z,6.82
2023-04-02T17:11:14.793Z,6.68
2023-04-02T17:13:48.403Z,6.63
2023-04-02T17:16:35.326Z,6.52
2023-04-02T17:19:01.849Z,6.39
2023-04-02T17:21:30.872Z,6.35
2023-04-02T17:24:02.392Z,6.35
2023-04-02T17:26:32.680Z,6.27
2023-04-02T17:29:04.214Z,6.28
2023-04-02T17:31:33.192Z,6.31
2023-04-02T17:34:00.217Z,6.35
2023-04-02T17:37:03.738Z,6.34
2023-04-02T17:39:40.368Z,6.26
2023-04-02T17:42:28.425Z,6.22
2023-04-02T17:45:17.548Z,6.35
2023-04-02T17:48:04.348Z,6.35
2023-04-02T17:50:44.773Z,6.35
2023-04-02T17:53:26.912Z,6.46
2023-04-02T17:56:19.767Z,6.30
2023-04-02T17:59:20.301Z,6.22
2023-04-02T18:01:54.076Z,6.16
2023-04-02T18:04:54.753Z,6.11
2023-04-02T18:07:29.578Z,6.12
2023-04-02T18:10:09.921Z,6.12
2023-04-02T18:12:57.321Z,6.03
2023-04-02T18:15:48.491Z,6.00
2023-04-02T18:18:30.427Z,5.99
2023-04-02T18:21:24.302Z,6.02
2023-04-02T18:24:28.417Z,5.99
2023-04-02T18:27:22.506Z,6.02
2023-04-02T18:30:14.652Z,6.03
2023-04-02T18:33:01.334Z,6.12
2023-04-02T18:35:36.812Z,6.10
2023-04-02T18:38:27.846Z,6.15
2023-04-02T18:41:19.488Z,6.28
2023-04-02T18:44:13.950Z,6.26
2023-04-02T18:46:54.084Z,6.27
2023-04-02T18:49:37.990Z,6.15
2023-04-02T18:52:12.486Z,6.03
2023-04-02T18:54:45.738Z,6.04
2023-04-02T18:57:21.048Z,6.20
2023-04-02T19:00:23.932Z,6.44
2023-04-02T19:03:00.231Z,6.33
2023-04-02T19:05:36.108Z,6.37
2023-04-02T19:08:13.733Z,6.18
2023-04-02T19:10:44.825Z,6.30
2023-04-02T19:13:16.284Z,6.27
2023-04-02T19:16:06.091Z,6.35
2023-04-02T19:18:51.681Z,6.16
2023-04-02T19:21:34.661Z,6.19
2023-04-02T19:24:40.172Z,6.21
2023-04-02T19:27:36.926Z,6.15
2023-04-02T19:30:27.117Z,6.23
2023-04-02T19:33:09.712Z,6.39
2023-04-02T19:35:45.652Z,6.34
2023-04-02T19:38:37.889Z,6.21
2023-04-02T19:41:25.265Z,6.65
2023-04-02T19:43:52.696Z,6.61
2023-04-02T19:46:19.056Z,6.47
2023-04-02T19:49:12.678Z,6.83
2023-04-02T19:51:38.967Z,6.68
2023-04-02T19:54:05.447Z,6.89
2023-04-02T19:56:31.999Z,6.65
2023-04-02T19:59:02.356Z,6.49
2023-04-02T20:01:31.546Z,6.42
2023-04-02T20:03:57.978Z,6.46
2023-04-02T20:06:24.339Z,6.36
2023-04-02T20:08:50.878Z,6.42
2023-04-02T20:11:17.213Z,6.58
2023-04-02T20:13:43.854Z,6.39
2023-04-02T20:16:10.434Z,6.45
2023-04-02T20:18:36.857Z,6.25
2023-04-02T20:21:05.440Z,6.28
2023-04-02T20:23:31.865Z,6.34
2023-04-02T20:25:58.363Z,6.41
2023-04-02T20:28:26.008Z,6.67
2023-04-02T20:30:52.939Z,6.78
2023-04-02T20:33:24.471Z,6.49
2023-04-02T20:35:52.850Z,6.28
2023-04-02T20:38:19.314Z,6.52
2023-04-02T20:40:45.748Z,6.45
2023-04-02T20:43:12.202Z,6.41
2023-04-02T20:45:38.491Z,6.49
2023-04-02T20:48:05.210Z,6.66
2023-04-02T20:50:31.607Z,6.55
2023-04-02T20:53:00.148Z,6.45
2023-04-02T20:55:26.570Z,6.70
2023-04-02T20:57:53.627Z,6.44
2023-04-02T21:00:20.164Z,6.25
2023-04-02T21:02:46.732Z,6.06
2023-04-02T21:05:13.202Z,6.15
2023-04-02T21:07:39.658Z,6.05
2023-04-02T21:10:07.470Z,6.26
2023-04-02T21:12:33.796Z,6.70
2023-04-02T21:15:02.230Z,6.62
2023-04-02T21:17:29.491Z,6.44
2023-04-02T21:19:56.121Z,6.30
2023-04-02T21:22:22.779Z,6.53
2023-04-02T21:24:49.207Z,6.27
2023-04-02T21:27:15.549Z,6.20
2023-04-02T21:29:41.942Z,6.11
2023-04-02T21:32:20.365Z,5.94
2023-04-02T21:34:47.461Z,6.24
2023-04-02T21:37:13.889Z,6.41
2023-04-02T21:39:40.454Z,6.23
2023-04-02T21:42:06.812Z,6.10
2023-04-02T21:44:33.277Z,5.92
2023-04-02T21:46:59.748Z,5.97
2023-04-02T21:49:26.196Z,6.18
2023-04-02T21:51:52.499Z,6.03
2023-04-02T21:54:19.547Z,6.56
2023-04-02T21:56:46.757Z,6.37
2023-04-02T21:59:15.867Z,5.95
2023-04-02T22:01:47.962Z,6.04
2023-04-02T22:04:17.444Z,5.91
2023-04-02T22:06:44.684Z,6.01
2023-04-02T22:09:15.419Z,5.92
2023-04-02T22:11:50.313Z,6.15
2023-04-02T22:14:17.091Z,6.42
2023-04-02T22:16:43.861Z,6.01
2023-04-02T22:19:13.719Z,5.87
2023-04-02T22:21:40.418Z,6.32
2023-04-02T22:24:09.356Z,6.21
2023-04-02T22:26:36.162Z,5.99
2023-04-02T22:29:02.683Z,5.77
2023-04-02T22:31:31.113Z,5.89
2023-04-02T22:33:58.011Z,5.50
2023-04-02T22:36:26.163Z,5.92
2023-04-02T22:38:53.031Z,5.84
2023-04-02T22:41:22.825Z,5.54
2023-04-02T22:43:49.404Z,5.30
2023-04-02T22:46:17.499Z,5.01
2023-04-02T22:48:44.688Z,5.14
2023-04-02T22:51:13.051Z,5.24
2023-04-02T22:53:39.697Z,5.23
2023-04-02T22:56:08.038Z,5.28
2023-04-02T22:58:35.323Z,5.02
2023-04-02T23:01:17.629Z,5.07
2023-04-02T23:03:44.020Z,4.88
2023-04-02T23:06:13.455Z,4.88
2023-04-02T23:08:41.436Z,4.86
2023-04-02T23:11:12.250Z,4.90
2023-04-02T23:13:39.830Z,4.87
2023-04-02T23:16:10.124Z,4.92
2023-04-02T23:18:38.040Z,5.05
2023-04-02T23:21:05.699Z,4.88
2023-04-02T23:23:33.089Z,4.71
2023-04-02T23:26:14.601Z,4.50
2023-04-02T23:28:41.705Z,4.57
2023-04-02T23:31:12.318Z,4.51
2023-04-02T23:33:39.320Z,4.50
2023-04-02T23:36:10.504Z,4.70
2023-04-02T23:38:36.993Z,4.43
2023-04-02T23:41:03.707Z,4.31
2023-04-02T23:43:30.106Z,4.18
2023-04-02T23:45:56.772Z,4.26
2023-04-02T23:48:23.391Z,3.96
2023-04-02T23:50:49.773Z,4.02
2023-04-02T23:53:16.073Z,3.85
2023-04-02T23:55:42.459Z,3.78
2023-04-02T23:58:08.777Z,3.73
